sensor_id;sensor_type;location;lat;lon;timestamp;pressure;altitude;pressure_sealevel;temperature;humidity
5522;BME280;2783;48.730;8.006;2024-02-14T00:01:51;100588.22;;;8.14;98.81
5522;BME280;2783;48.730;8.006;2024-02-14T00:04:16;100604.97;;;8.16;99.04
5522;BME280;2783;48.730;8.006;2024-02-14T00:06:41;100604.97;;;8.14;98.80
5522;BME280;2783;48.730;8.006;2024-02-14T00:09:08;100599.63;;;8.20;98.97
5522;BME280;2783;48.730;8.006;2024-02-14T00:11:33;100572.50;;;8.01;98.99
5522;BME280;2783;48.730;8.006;2024-02-14T00:13:59;100595.19;;;8.24;99.09
5522;BME280;2783;48.730;8.006;2024-02-14T00:16:25;100574.22;;;8.02;99.33
5522;BME280;2783;48.730;8.006;2024-02-14T00:18:51;100596.94;;;8.22;99.48
5522;BME280;2783;48.730;8.006;2024-02-14T00:21:16;100575.97;;;8.07;99.73
5522;BME280;2783;48.730;8.006;2024-02-14T00:23:42;100599.56;;;8.26;99.60
5522;BME280;2783;48.730;8.006;2024-02-14T00:26:08;100591.53;;;8.31;99.79
5522;BME280;2783;48.730;8.006;2024-02-14T00:28:34;100595.88;;;8.36;99.24
5522;BME280;2783;48.730;8.006;2024-02-14T00:30:59;100561.63;;;8.20;98.39
5522;BME280;2783;48.730;8.006;2024-02-14T00:33:25;100596.72;;;8.40;96.69
5522;BME280;2783;48.730;8.006;2024-02-14T00:35:50;100596.59;;;8.47;96.51
5522;BME280;2783;48.730;8.006;2024-02-14T00:38:16;100569.47;;;8.30;96.63
5522;BME280;2783;48.730;8.006;2024-02-14T00:40:41;100592.06;;;8.54;96.64
5522;BME280;2783;48.730;8.006;2024-02-14T00:43:07;100525.53;;;8.11;96.67
5522;BME280;2783;48.730;8.006;2024-02-14T00:45:32;100580.66;;;8.49;96.43
5522;BME280;2783;48.730;8.006;2024-02-14T00:47:57;100586.91;;;8.46;96.73
5522;BME280;2783;48.730;8.006;2024-02-14T00:50:23;100587.81;;;8.44;96.96
5522;BME280;2783;48.730;8.006;2024-02-14T00:52:48;100594.00;;;8.44;96.72
5522;BME280;2783;48.730;8.006;2024-02-14T00:55:14;100590.47;;;8.44;96.78
5522;BME280;2783;48.730;8.006;2024-02-14T00:57:39;100569.31;;;8.39;96.40
5522;BME280;2783;48.730;8.006;2024-02-14T01:00:06;100578.91;;;8.48;96.54
5522;BME280;2783;48.730;8.006;2024-02-14T01:02:31;100579.78;;;8.50;96.33
5522;BME280;2783;48.730;8.006;2024-02-14T01:04:57;100549.25;;;8.25;96.55
5522;BME280;2783;48.730;8.006;2024-02-14T01:07:22;100566.81;;;8.29;96.28
5522;BME280;2783;48.730;8.006;2024-02-14T01:09:48;100590.44;;;8.45;96.57
5522;BME280;2783;48.730;8.006;2024-02-14T01:12:13;100583.41;;;8.43;96.27
5522;BME280;2783;48.730;8.006;2024-02-14T01:14:38;100585.22;;;8.39;97.22
5522;BME280;2783;48.730;8.006;2024-02-14T01:17:04;100584.41;;;8.36;97.23
5522;BME280;2783;48.730;8.006;2024-02-14T01:19:29;100580.06;;;8.32;97.10
5522;BME280;2783;48.730;8.006;2024-02-14T01:21:55;100579.16;;;8.33;96.99
5522;BME280;2783;48.730;8.006;2024-02-14T01:24:22;100551.09;;;8.17;96.99
5522;BME280;2783;48.730;8.006;2024-02-14T01:26:48;100580.88;;;8.34;97.49
5522;BME280;2783;48.730;8.006;2024-02-14T01:29:14;100541.41;;;8.14;97.60
5522;BME280;2783;48.730;8.006;2024-02-14T01:31:42;100572.97;;;8.31;97.07
5522;BME280;2783;48.730;8.006;2024-02-14T01:34:07;100569.38;;;8.36;96.91
5522;BME280;2783;48.730;8.006;2024-02-14T01:36:32;100563.06;;;8.45;97.11
5522;BME280;2783;48.730;8.006;2024-02-14T01:38:58;100524.50;;;8.23;96.28
5522;BME280;2783;48.730;8.006;2024-02-14T01:41:23;100559.41;;;8.52;95.89
5522;BME280;2783;48.730;8.006;2024-02-14T01:43:49;100522.56;;;8.37;94.72
5522;BME280;2783;48.730;8.006;2024-02-14T01:46:15;100551.19;;;8.67;94.20
5522;BME280;2783;48.730;8.006;2024-02-14T01:48:41;100546.66;;;8.76;93.83
5522;BME280;2783;48.730;8.006;2024-02-14T01:51:10;100540.47;;;8.76;93.06
5522;BME280;2783;48.730;8.006;2024-02-14T01:53:36;100500.88;;;8.64;93.29
5522;BME280;2783;48.730;8.006;2024-02-14T01:56:03;100532.38;;;8.82;92.65
5522;BME280;2783;48.730;8.006;2024-02-14T01:58:30;100532.38;;;8.82;93.15
5522;BME280;2783;48.730;8.006;2024-02-14T02:00:56;100534.22;;;8.78;92.55
5522;BME280;2783;48.730;8.006;2024-02-14T02:03:24;100503.78;;;8.49;92.28
5522;BME280;2783;48.730;8.006;2024-02-14T02:05:51;100528.31;;;8.63;93.09
5522;BME280;2783;48.730;8.006;2024-02-14T02:08:17;100492.50;;;8.38;93.30
5522;BME280;2783;48.730;8.006;2024-02-14T02:10:43;100529.34;;;8.53;93.59
5522;BME280;2783;48.730;8.006;2024-02-14T02:13:08;100525.94;;;8.46;94.00
5522;BME280;2783;48.730;8.006;2024-02-14T02:15:34;100502.41;;;8.27;94.30
5522;BME280;2783;48.730;8.006;2024-02-14T02:18:01;100529.50;;;8.44;94.30
5522;BME280;2783;48.730;8.006;2024-02-14T02:20:27;100524.16;;;8.45;94.80
5522;BME280;2783;48.730;8.006;2024-02-14T02:22:53;100491.78;;;8.27;94.89
5522;BME280;2783;48.730;8.006;2024-02-14T02:25:18;100518.84;;;8.47;94.99
5522;BME280;2783;48.730;8.006;2024-02-14T02:27:48;100494.34;;;8.33;95.17
5522;BME280;2783;48.730;8.006;2024-02-14T02:30:14;100522.41;;;8.46;95.04
5522;BME280;2783;48.730;8.006;2024-02-14T02:32:39;100523.25;;;8.48;94.57
5522;BME280;2783;48.730;8.006;2024-02-14T02:35:06;100518.84;;;8.47;95.10
5522;BME280;2783;48.730;8.006;2024-02-14T02:37:32;100488.19;;;8.31;95.62
5522;BME280;2783;48.730;8.006;2024-02-14T02:39:58;100515.19;;;8.54;94.99
5522;BME280;2783;48.730;8.006;2024-02-14T02:42:24;100523.84;;;8.63;94.25
5522;BME280;2783;48.730;8.006;2024-02-14T02:44:50;100524.63;;;8.71;93.54
5522;BME280;2783;48.730;8.006;2024-02-14T02:47:16;100478.25;;;8.45;92.77
5522;BME280;2783;48.730;8.006;2024-02-14T02:49:44;100510.44;;;8.74;92.61
5522;BME280;2783;48.730;8.006;2024-02-14T02:52:13;100496.31;;;8.72;92.12
5522;BME280;2783;48.730;8.006;2024-02-14T02:54:38;100540.13;;;8.95;91.74
5522;BME280;2783;48.730;8.006;2024-02-14T02:57:10;100508.50;;;8.82;91.28
5522;BME280;2783;48.730;8.006;2024-02-14T02:59:35;100538.06;;;9.09;90.38
5522;BME280;2783;48.730;8.006;2024-02-14T03:02:01;100545.03;;;9.16;89.32
5522;BME280;2783;48.730;8.006;2024-02-14T03:04:27;100502.06;;;8.96;87.85
5522;BME280;2783;48.730;8.006;2024-02-14T03:06:53;100539.50;;;9.28;86.72
5522;BME280;2783;48.730;8.006;2024-02-14T03:09:19;100506.16;;;9.14;85.80
5522;BME280;2783;48.730;8.006;2024-02-14T03:11:47;100538.38;;;9.40;84.96
5522;BME280;2783;48.730;8.006;2024-02-14T03:14:13;100539.09;;;9.48;84.55
5522;BME280;2783;48.730;8.006;2024-02-14T03:16:38;100550.50;;;9.53;84.51
5522;BME280;2783;48.730;8.006;2024-02-14T03:19:04;100542.50;;;9.55;83.94
5522;BME280;2783;48.730;8.006;2024-02-14T03:21:33;100487.41;;;9.23;84.18
5522;BME280;2783;48.730;8.006;2024-02-14T03:24:03;100510.03;;;9.42;83.80
5522;BME280;2783;48.730;8.006;2024-02-14T03:26:30;100536.16;;;9.63;83.67
5522;BME280;2783;48.730;8.006;2024-02-14T03:28:59;100514.38;;;9.45;83.65
5522;BME280;2783;48.730;8.006;2024-02-14T03:31:25;100539.66;;;9.65;83.71
5522;BME280;2783;48.730;8.006;2024-02-14T03:33:51;100536.06;;;9.66;84.30
5522;BME280;2783;48.730;8.006;2024-02-14T03:36:16;100537.72;;;9.73;83.81
5522;BME280;2783;48.730;8.006;2024-02-14T03:38:42;100529.69;;;9.75;83.57
5522;BME280;2783;48.730;8.006;2024-02-14T03:41:07;100520.97;;;9.70;84.09
5522;BME280;2783;48.730;8.006;2024-02-14T03:43:33;100525.31;;;9.72;82.31
5522;BME280;2783;48.730;8.006;2024-02-14T03:45:58;100491.03;;;9.62;82.22
5522;BME280;2783;48.730;8.006;2024-02-14T03:48:24;100483.19;;;9.54;82.46
5522;BME280;2783;48.730;8.006;2024-02-14T03:50:49;100533.88;;;9.86;81.96
5522;BME280;2783;48.730;8.006;2024-02-14T03:53:15;100540.03;;;9.87;82.02
5522;BME280;2783;48.730;8.006;2024-02-14T03:55:41;100497.13;;;9.67;81.81
5522;BME280;2783;48.730;8.006;2024-02-14T03:58:06;100530.38;;;9.84;82.92
5522;BME280;2783;48.730;8.006;2024-02-14T04:00:34;100539.19;;;9.86;82.31
5522;BME280;2783;48.730;8.006;2024-02-14T04:03:01;100550.72;;;9.85;82.33
5522;BME280;2783;48.730;8.006;2024-02-14T04:05:28;100547.28;;;9.82;82.55
5522;BME280;2783;48.730;8.006;2024-02-14T04:07:54;100546.25;;;9.87;83.30
5522;BME280;2783;48.730;8.006;2024-02-14T04:10:21;100549.75;;;9.89;83.63
5522;BME280;2783;48.730;8.006;2024-02-14T04:12:47;100551.56;;;9.87;83.26
5522;BME280;2783;48.730;8.006;2024-02-14T04:15:12;100541.00;;;9.84;83.40
5522;BME280;2783;48.730;8.006;2024-02-14T04:17:39;100549.75;;;9.89;82.90
5522;BME280;2783;48.730;8.006;2024-02-14T04:20:05;100523.50;;;9.74;83.49
5522;BME280;2783;48.730;8.006;2024-02-14T04:22:31;100556.81;;;9.90;83.32
5522;BME280;2783;48.730;8.006;2024-02-14T04:24:56;100554.16;;;9.90;82.66
5522;BME280;2783;48.730;8.006;2024-02-14T04:27:22;100556.69;;;9.96;82.53
5522;BME280;2783;48.730;8.006;2024-02-14T04:29:47;100558.50;;;9.94;82.27
5522;BME280;2783;48.730;8.006;2024-02-14T04:32:13;100559.38;;;9.95;82.58
5522;BME280;2783;48.730;8.006;2024-02-14T04:34:39;100555.72;;;9.99;82.32
5522;BME280;2783;48.730;8.006;2024-02-14T04:37:05;100560.97;;;10.02;82.27
5522;BME280;2783;48.730;8.006;2024-02-14T04:39:36;100561.00;;;10.00;81.27
5522;BME280;2783;48.730;8.006;2024-02-14T04:42:01;100563.56;;;10.06;81.58
5522;BME280;2783;48.730;8.006;2024-02-14T04:44:28;100568.84;;;10.09;81.81
5522;BME280;2783;48.730;8.006;2024-02-14T04:46:53;100561.72;;;10.11;81.36
5522;BME280;2783;48.730;8.006;2024-02-14T04:49:19;100566.06;;;10.14;82.15
5522;BME280;2783;48.730;8.006;2024-02-14T04:51:45;100576.66;;;10.15;82.52
5522;BME280;2783;48.730;8.006;2024-02-14T04:54:10;100531.16;;;9.89;81.63
5522;BME280;2783;48.730;8.006;2024-02-14T04:56:36;100562.63;;;10.09;81.55
5522;BME280;2783;48.730;8.006;2024-02-14T04:59:01;100567.00;;;10.13;82.18
5522;BME280;2783;48.730;8.006;2024-02-14T05:01:27;100566.00;;;10.17;82.11
5522;BME280;2783;48.730;8.006;2024-02-14T05:03:52;100557.16;;;10.16;82.16
5522;BME280;2783;48.730;8.006;2024-02-14T05:06:18;100561.56;;;10.17;81.22
5522;BME280;2783;48.730;8.006;2024-02-14T05:08:43;100514.13;;;9.98;80.68
5522;BME280;2783;48.730;8.006;2024-02-14T05:11:08;100550.78;;;10.23;81.41
5522;BME280;2783;48.730;8.006;2024-02-14T05:13:34;100551.75;;;10.21;80.92
5522;BME280;2783;48.730;8.006;2024-02-14T05:16:04;100529.84;;;10.08;80.09
5522;BME280;2783;48.730;8.006;2024-02-14T05:18:30;100555.06;;;10.30;80.45
5522;BME280;2783;48.730;8.006;2024-02-14T05:20:55;100552.41;;;10.30;80.00
5522;BME280;2783;48.730;8.006;2024-02-14T05:23:21;100550.59;;;10.32;79.62
5522;BME280;2783;48.730;8.006;2024-02-14T05:25:46;100546.94;;;10.36;80.86
5522;BME280;2783;48.730;8.006;2024-02-14T05:28:12;100547.81;;;10.37;80.03
5522;BME280;2783;48.730;8.006;2024-02-14T05:30:42;100544.31;;;10.35;80.78
5522;BME280;2783;48.730;8.006;2024-02-14T05:33:08;100555.09;;;10.29;80.56
5522;BME280;2783;48.730;8.006;2024-02-14T05:35:33;100546.16;;;10.31;81.11
5522;BME280;2783;48.730;8.006;2024-02-14T05:37:59;100557.72;;;10.30;80.55
5522;BME280;2783;48.730;8.006;2024-02-14T05:40:24;100548.84;;;10.30;80.77
5522;BME280;2783;48.730;8.006;2024-02-14T05:42:49;100554.09;;;10.33;81.96
5522;BME280;2783;48.730;8.006;2024-02-14T05:45:15;100557.72;;;10.30;81.25
5522;BME280;2783;48.730;8.006;2024-02-14T05:47:40;100555.91;;;10.32;80.50
5522;BME280;2783;48.730;8.006;2024-02-14T05:50:06;100548.03;;;10.28;80.53
5522;BME280;2783;48.730;8.006;2024-02-14T05:52:34;100561.06;;;10.38;80.21
5522;BME280;2783;48.730;8.006;2024-02-14T05:54:59;100563.72;;;10.38;81.47
5522;BME280;2783;48.730;8.006;2024-02-14T05:57:25;100566.38;;;10.38;81.75
5522;BME280;2783;48.730;8.006;2024-02-14T05:59:51;100563.72;;;10.38;81.05
5522;BME280;2783;48.730;8.006;2024-02-14T06:02:16;100562.75;;;10.42;82.03
5522;BME280;2783;48.730;8.006;2024-02-14T06:04:41;100565.50;;;10.38;81.23
5522;BME280;2783;48.730;8.006;2024-02-14T06:07:08;100566.31;;;10.41;81.47
5522;BME280;2783;48.730;8.006;2024-02-14T06:09:35;100569.81;;;10.43;80.77
5522;BME280;2783;48.730;8.006;2024-02-14T06:12:00;100566.44;;;10.37;81.22
5522;BME280;2783;48.730;8.006;2024-02-14T06:14:26;100566.25;;;10.44;81.56
5522;BME280;2783;48.730;8.006;2024-02-14T06:16:51;100572.47;;;10.43;82.04
5522;BME280;2783;48.730;8.006;2024-02-14T06:19:17;100536.59;;;10.24;82.02
5522;BME280;2783;48.730;8.006;2024-02-14T06:21:42;100580.53;;;10.40;81.59
5522;BME280;2783;48.730;8.006;2024-02-14T06:24:08;100584.09;;;10.39;81.80
5522;BME280;2783;48.730;8.006;2024-02-14T06:26:35;100583.13;;;10.43;82.84
5522;BME280;2783;48.730;8.006;2024-02-14T06:29:01;100588.47;;;10.42;81.55
5522;BME280;2783;48.730;8.006;2024-02-14T06:31:27;100535.19;;;10.08;81.54
5522;BME280;2783;48.730;8.006;2024-02-14T06:33:53;100591.16;;;10.40;83.25
5522;BME280;2783;48.730;8.006;2024-02-14T06:36:18;100600.03;;;10.39;82.54
5522;BME280;2783;48.730;8.006;2024-02-14T06:38:43;100590.28;;;10.40;82.33
5522;BME280;2783;48.730;8.006;2024-02-14T06:41:11;100585.81;;;10.42;82.51
5522;BME280;2783;48.730;8.006;2024-02-14T06:43:37;100593.78;;;10.42;82.76
5522;BME280;2783;48.730;8.006;2024-02-14T06:46:05;100594.72;;;10.41;81.78
5522;BME280;2783;48.730;8.006;2024-02-14T06:48:31;100604.53;;;10.37;81.40
5522;BME280;2783;48.730;8.006;2024-02-14T06:50:56;100592.84;;;10.44;82.72
5522;BME280;2783;48.730;8.006;2024-02-14T06:53:22;100603.47;;;10.44;81.93
5522;BME280;2783;48.730;8.006;2024-02-14T06:55:47;100604.63;;;10.34;82.75
5522;BME280;2783;48.730;8.006;2024-02-14T06:58:13;100612.44;;;10.40;83.09
5522;BME280;2783;48.730;8.006;2024-02-14T07:00:38;100616.84;;;10.41;83.15
5522;BME280;2783;48.730;8.006;2024-02-14T07:03:04;100619.50;;;10.41;82.86
5522;BME280;2783;48.730;8.006;2024-02-14T07:05:30;100599.53;;;10.24;83.20
5522;BME280;2783;48.730;8.006;2024-02-14T07:07:56;100590.72;;;10.20;83.82
5522;BME280;2783;48.730;8.006;2024-02-14T07:10:22;100597.72;;;10.26;84.17
5522;BME280;2783;48.730;8.006;2024-02-14T07:12:47;100623.00;;;10.43;84.57
5522;BME280;2783;48.730;8.006;2024-02-14T07:15:13;100628.31;;;10.43;85.15
5522;BME280;2783;48.730;8.006;2024-02-14T07:17:38;100626.63;;;10.39;84.55
5522;BME280;2783;48.730;8.006;2024-02-14T07:20:05;100626.59;;;10.42;84.84
5522;BME280;2783;48.730;8.006;2024-02-14T07:22:30;100625.75;;;10.40;84.33
5522;BME280;2783;48.730;8.006;2024-02-14T07:24:56;100626.59;;;10.42;85.23
5522;BME280;2783;48.730;8.006;2024-02-14T07:27:22;100628.41;;;10.40;84.87
5522;BME280;2783;48.730;8.006;2024-02-14T07:29:49;100607.47;;;10.25;85.03
5522;BME280;2783;48.730;8.006;2024-02-14T07:32:14;100645.13;;;10.45;85.03
5522;BME280;2783;48.730;8.006;2024-02-14T07:34:40;100614.47;;;10.29;84.88
5522;BME280;2783;48.730;8.006;2024-02-14T07:37:06;100617.94;;;10.31;84.53
5522;BME280;2783;48.730;8.006;2024-02-14T07:39:32;100654.72;;;10.52;85.23
5522;BME280;2783;48.730;8.006;2024-02-14T07:41:57;100650.22;;;10.54;84.32
5522;BME280;2783;48.730;8.006;2024-02-14T07:44:23;100633.47;;;10.51;82.69
5522;BME280;2783;48.730;8.006;2024-02-14T07:46:51;100650.81;;;10.69;82.69
5522;BME280;2783;48.730;8.006;2024-02-14T07:49:18;100656.81;;;10.77;82.30
5522;BME280;2783;48.730;8.006;2024-02-14T07:51:44;100654.25;;;10.74;80.70
5522;BME280;2783;48.730;8.006;2024-02-14T07:54:09;100660.38;;;10.77;81.94
5522;BME280;2783;48.730;8.006;2024-02-14T07:56:35;100657.56;;;10.83;81.86
5522;BME280;2783;48.730;8.006;2024-02-14T07:59:00;100665.53;;;10.83;81.73
5522;BME280;2783;48.730;8.006;2024-02-14T08:01:26;100669.13;;;10.82;80.93
5522;BME280;2783;48.730;8.006;2024-02-14T08:03:51;100677.16;;;10.79;82.19
5522;BME280;2783;48.730;8.006;2024-02-14T08:06:17;100673.53;;;10.83;82.07
5522;BME280;2783;48.730;8.006;2024-02-14T08:08:43;100643.72;;;10.68;82.25
5522;BME280;2783;48.730;8.006;2024-02-14T08:11:11;100651.69;;;10.68;82.94
5522;BME280;2783;48.730;8.006;2024-02-14T08:13:36;100623.50;;;10.60;82.59
5522;BME280;2783;48.730;8.006;2024-02-14T08:16:05;100683.16;;;10.89;82.77
5522;BME280;2783;48.730;8.006;2024-02-14T08:18:31;100669.91;;;10.86;82.41
5522;BME280;2783;48.730;8.006;2024-02-14T08:20:57;100670.66;;;10.91;82.93
5522;BME280;2783;48.730;8.006;2024-02-14T08:23:22;100674.00;;;11.00;81.43
5522;BME280;2783;48.730;8.006;2024-02-14T08:25:48;100673.13;;;11.00;81.31
5522;BME280;2783;48.730;8.006;2024-02-14T08:28:14;100678.16;;;11.12;81.39
5522;BME280;2783;48.730;8.006;2024-02-14T08:30:39;100681.59;;;11.17;81.75
5522;BME280;2783;48.730;8.006;2024-02-14T08:33:05;100681.59;;;11.17;81.72
5522;BME280;2783;48.730;8.006;2024-02-14T08:35:30;100681.53;;;11.20;80.70
5522;BME280;2783;48.730;8.006;2024-02-14T08:37:55;100650.03;;;11.02;81.03
5522;BME280;2783;48.730;8.006;2024-02-14T08:40:21;100679.81;;;11.16;80.39
5522;BME280;2783;48.730;8.006;2024-02-14T08:42:46;100678.81;;;11.21;80.42
5522;BME280;2783;48.730;8.006;2024-02-14T08:45:12;100688.50;;;11.24;80.08
5522;BME280;2783;48.730;8.006;2024-02-14T08:47:37;100688.41;;;11.28;79.65
5522;BME280;2783;48.730;8.006;2024-02-14T08:50:04;100688.31;;;11.31;80.71
5522;BME280;2783;48.730;8.006;2024-02-14T08:52:29;100682.88;;;11.36;79.88
5522;BME280;2783;48.730;8.006;2024-02-14T08:54:55;100647.75;;;11.20;80.06
5522;BME280;2783;48.730;8.006;2024-02-14T08:57:20;100675.78;;;11.36;79.52
5522;BME280;2783;48.730;8.006;2024-02-14T08:59:46;100680.97;;;11.41;80.05
5522;BME280;2783;48.730;8.006;2024-02-14T09:02:13;100653.00;;;11.25;79.71
5522;BME280;2783;48.730;8.006;2024-02-14T09:04:39;100677.75;;;11.62;78.83
5522;BME280;2783;48.730;8.006;2024-02-14T09:07:06;100674.94;;;11.69;78.59
5522;BME280;2783;48.730;8.006;2024-02-14T09:09:32;100675.69;;;11.74;77.50
5522;BME280;2783;48.730;8.006;2024-02-14T09:11:58;100639.66;;;11.58;77.13
5522;BME280;2783;48.730;8.006;2024-02-14T09:14:30;100666.31;;;11.92;75.77
5522;BME280;2783;48.730;8.006;2024-02-14T09:16:56;100655.50;;;11.97;75.69
5522;BME280;2783;48.730;8.006;2024-02-14T09:19:23;100660.41;;;12.12;74.37
5522;BME280;2783;48.730;8.006;2024-02-14T09:21:48;100658.91;;;12.32;73.49
5522;BME280;2783;48.730;8.006;2024-02-14T09:24:14;100654.00;;;12.48;73.58
5522;BME280;2783;48.730;8.006;2024-02-14T09:26:40;100654.59;;;12.57;72.50
5522;BME280;2783;48.730;8.006;2024-02-14T09:29:05;100651.34;;;12.75;73.37
5522;BME280;2783;48.730;8.006;2024-02-14T09:31:31;100611.06;;;12.83;71.99
5522;BME280;2783;48.730;8.006;2024-02-14T09:33:56;100646.91;;;13.30;70.54
5522;BME280;2783;48.730;8.006;2024-02-14T09:36:23;100640.09;;;13.47;70.22
5522;BME280;2783;48.730;8.006;2024-02-14T09:38:50;100641.72;;;13.51;69.17
5522;BME280;2783;48.730;8.006;2024-02-14T09:41:25;100646.09;;;13.54;68.56
5522;BME280;2783;48.730;8.006;2024-02-14T09:43:52;100637.84;;;13.60;69.44
5522;BME280;2783;48.730;8.006;2024-02-14T09:46:17;100646.00;;;13.57;69.81
5522;BME280;2783;48.730;8.006;2024-02-14T09:48:44;100647.06;;;13.51;69.65
5522;BME280;2783;48.730;8.006;2024-02-14T09:51:11;100617.53;;;13.30;69.40
5522;BME280;2783;48.730;8.006;2024-02-14T09:53:41;100655.41;;;13.42;69.53
5522;BME280;2783;48.730;8.006;2024-02-14T09:56:09;100662.31;;;13.49;69.94
5522;BME280;2783;48.730;8.006;2024-02-14T09:58:36;100657.75;;;13.51;70.95
5522;BME280;2783;48.730;8.006;2024-02-14T10:01:01;100632.53;;;13.34;70.13
5522;BME280;2783;48.730;8.006;2024-02-14T10:03:27;100660.19;;;13.59;70.64
5522;BME280;2783;48.730;8.006;2024-02-14T10:05:52;100659.00;;;13.67;70.71
5522;BME280;2783;48.730;8.006;2024-02-14T10:08:18;100658.78;;;13.73;71.42
5522;BME280;2783;48.730;8.006;2024-02-14T10:10:44;100662.22;;;13.77;70.32
5522;BME280;2783;48.730;8.006;2024-02-14T10:13:09;100660.84;;;13.90;70.58
5522;BME280;2783;48.730;8.006;2024-02-14T10:15:35;100663.34;;;13.94;71.35
5522;BME280;2783;48.730;8.006;2024-02-14T10:18:01;100658.00;;;13.94;71.49
5522;BME280;2783;48.730;8.006;2024-02-14T10:20:28;100665.97;;;13.96;71.41
5522;BME280;2783;48.730;8.006;2024-02-14T10:23:01;100679.63;;;14.13;70.93
5522;BME280;2783;48.730;8.006;2024-02-14T10:25:30;100648.72;;;14.29;70.26
5522;BME280;2783;48.730;8.006;2024-02-14T10:28:06;100682.56;;;14.76;67.97
5522;BME280;2783;48.730;8.006;2024-02-14T10:30:34;100680.75;;;14.77;67.60
5522;BME280;2783;48.730;8.006;2024-02-14T10:33:00;100686.81;;;14.82;68.87
5522;BME280;2783;48.730;8.006;2024-02-14T10:35:28;100688.19;;;14.92;66.98
5522;BME280;2783;48.730;8.006;2024-02-14T10:37:55;100684.03;;;15.06;66.21
5522;BME280;2783;48.730;8.006;2024-02-14T10:40:27;100697.47;;;15.49;67.42
5522;BME280;2783;48.730;8.006;2024-02-14T10:42:53;100688.19;;;15.78;66.01
5522;BME280;2783;48.730;8.006;2024-02-14T10:45:19;100671.59;;;15.89;64.65
5522;BME280;2783;48.730;8.006;2024-02-14T10:47:46;100687.44;;;16.15;65.09
5522;BME280;2783;48.730;8.006;2024-02-14T10:50:14;100645.72;;;15.88;64.78
5522;BME280;2783;48.730;8.006;2024-02-14T10:52:41;100687.03;;;16.04;65.89
5522;BME280;2783;48.730;8.006;2024-02-14T10:55:07;100666.38;;;16.06;65.78
5522;BME280;2783;48.730;8.006;2024-02-14T10:57:34;100682.09;;;15.95;65.36
5522;BME280;2783;48.730;8.006;2024-02-14T11:00:03;100674.97;;;15.94;65.99
5522;BME280;2783;48.730;8.006;2024-02-14T11:02:36;100686.78;;;15.90;67.36
5522;BME280;2783;48.730;8.006;2024-02-14T11:05:02;100689.66;;;15.85;68.89
5522;BME280;2783;48.730;8.006;2024-02-14T11:07:28;100693.31;;;15.62;69.46
5522;BME280;2783;48.730;8.006;2024-02-14T11:10:04;100692.66;;;15.57;70.35
5522;BME280;2783;48.730;8.006;2024-02-14T11:12:37;100696.09;;;15.39;71.38
5522;BME280;2783;48.730;8.006;2024-02-14T11:15:23;100690.09;;;15.33;71.85
5522;BME280;2783;48.730;8.006;2024-02-14T11:18:04;100690.28;;;15.28;71.16
5522;BME280;2783;48.730;8.006;2024-02-14T11:20:34;100658.69;;;15.15;72.06
5522;BME280;2783;48.730;8.006;2024-02-14T11:23:02;100688.59;;;15.47;72.60
5522;BME280;2783;48.730;8.006;2024-02-14T11:25:37;100694.81;;;15.69;72.80
5522;BME280;2783;48.730;8.006;2024-02-14T11:28:16;100660.75;;;15.71;70.74
5522;BME280;2783;48.730;8.006;2024-02-14T11:30:43;100685.97;;;16.08;69.76
5522;BME280;2783;48.730;8.006;2024-02-14T11:33:21;100681.59;;;16.05;69.68
5522;BME280;2783;48.730;8.006;2024-02-14T11:35:52;100682.09;;;15.95;69.52
5522;BME280;2783;48.730;8.006;2024-02-14T11:38:21;100689.31;;;15.72;70.99
5522;BME280;2783;48.730;8.006;2024-02-14T11:40:47;100685.69;;;15.73;71.25
5522;BME280;2783;48.730;8.006;2024-02-14T11:43:16;100696.34;;;15.75;72.74
5522;BME280;2783;48.730;8.006;2024-02-14T11:45:45;100678.78;;;15.88;71.37
5522;BME280;2783;48.730;8.006;2024-02-14T11:48:15;100679.28;;;15.98;71.17
5522;BME280;2783;48.730;8.006;2024-02-14T11:50:42;100671.59;;;16.09;71.21
5522;BME280;2783;48.730;8.006;2024-02-14T11:53:09;100647.56;;;16.26;70.85
5522;BME280;2783;48.730;8.006;2024-02-14T11:55:39;100665.47;;;16.64;68.65
5522;BME280;2783;48.730;8.006;2024-02-14T11:58:14;100674.06;;;16.53;68.06
5522;BME280;2783;48.730;8.006;2024-02-14T12:00:44;100661.84;;;16.46;69.12
5522;BME280;2783;48.730;8.006;2024-02-14T12:03:16;100661.38;;;16.37;70.68
5522;BME280;2783;48.730;8.006;2024-02-14T12:05:42;100630.69;;;16.04;70.73
5522;BME280;2783;48.730;8.006;2024-02-14T12:08:12;100633.13;;;15.90;71.46
5522;BME280;2783;48.730;8.006;2024-02-14T12:10:38;100656.63;;;16.03;71.92
5522;BME280;2783;48.730;8.006;2024-02-14T12:13:13;100650.44;;;16.03;72.36
5522;BME280;2783;48.730;8.006;2024-02-14T12:15:45;100626.75;;;15.72;72.47
5522;BME280;2783;48.730;8.006;2024-02-14T12:18:11;100632.19;;;15.70;74.15
5522;BME280;2783;48.730;8.006;2024-02-14T12:20:40;100654.59;;;15.90;74.11
5522;BME280;2783;48.730;8.006;2024-02-14T12:23:06;100657.66;;;16.01;74.24
5522;BME280;2783;48.730;8.006;2024-02-14T12:25:32;100650.88;;;16.12;72.54
5522;BME280;2783;48.730;8.006;2024-02-14T12:27:58;100648.50;;;16.05;72.96
5522;BME280;2783;48.730;8.006;2024-02-14T12:30:42;100649.00;;;16.14;74.30
5522;BME280;2783;48.730;8.006;2024-02-14T12:33:10;100654.69;;;16.07;73.00
5522;BME280;2783;48.730;8.006;2024-02-14T12:35:36;100644.09;;;16.04;74.53
5522;BME280;2783;48.730;8.006;2024-02-14T12:38:07;100621.00;;;15.81;74.72
5522;BME280;2783;48.730;8.006;2024-02-14T12:40:35;100646.34;;;15.94;74.92
5522;BME280;2783;48.730;8.006;2024-02-14T12:43:01;100613.47;;;15.69;75.70
5522;BME280;2783;48.730;8.006;2024-02-14T12:45:26;100637.09;;;15.81;75.95
5522;BME280;2783;48.730;8.006;2024-02-14T12:47:52;100631.78;;;15.79;75.95
5522;BME280;2783;48.730;8.006;2024-02-14T12:50:18;100605.63;;;15.64;76.17
5522;BME280;2783;48.730;8.006;2024-02-14T12:52:46;100625.41;;;15.82;76.00
5522;BME280;2783;48.730;8.006;2024-02-14T12:55:11;100618.25;;;15.82;76.76
5522;BME280;2783;48.730;8.006;2024-02-14T12:57:37;100623.25;;;15.90;76.46
5522;BME280;2783;48.730;8.006;2024-02-14T13:00:04;100620.25;;;15.98;75.93
5522;BME280;2783;48.730;8.006;2024-02-14T13:02:34;100610.47;;;16.15;75.47
5522;BME280;2783;48.730;8.006;2024-02-14T13:05:00;100617.97;;;16.27;74.43
5522;BME280;2783;48.730;8.006;2024-02-14T13:07:27;100565.97;;;16.10;74.62
5522;BME280;2783;48.730;8.006;2024-02-14T13:09:53;100585.91;;;16.24;74.25
5522;BME280;2783;48.730;8.006;2024-02-14T13:12:20;100593.34;;;16.18;74.04